createdAt,value
2018-09-20T00:00:54.545Z,49.53
2018-09-20T00:03:22.230Z,49.59
2018-09-20T00:05:49.914Z,50.22
2018-09-20T00:08:17.570Z,49.87
2018-09-20T00:10:45.332Z,50.09
2018-09-20T00:13:13.081Z,50.64
2018-09-20T00:15:40.747Z,50.73
2018-09-20T00:18:08.386Z,50.99
2018-09-20T00:20:36.095Z,51.49
2018-09-20T00:23:03.883Z,51.07
2018-09-20T00:25:31.516Z,51.80
2018-09-20T00:27:59.207Z,51.52
2018-09-20T00:30:26.865Z,51.44
2018-09-20T00:32:54.538Z,50.27
2018-09-20T00:35:22.279Z,49.17
2018-09-20T00:37:49.960Z,49.96
2018-09-20T00:40:17.720Z,48.87
2018-09-20T00:42:45.450Z,48.50
2018-09-20T00:45:13.156Z,48.38
2018-09-20T00:47:40.857Z,48.06
2018-09-20T00:50:08.616Z,48.42
2018-09-20T00:52:36.263Z,48.26
2018-09-20T00:55:03.995Z,47.98
2018-09-20T00:57:31.685Z,48.00
2018-09-20T00:59:59.360Z,47.53
2018-09-20T01:02:27.034Z,47.10
2018-09-20T01:04:54.737Z,48.04
2018-09-20T01:07:22.409Z,47.57
2018-09-20T01:09:50.138Z,47.61
2018-09-20T01:12:17.852Z,47.51
2018-09-20T01:14:45.523Z,47.62
2018-09-20T01:17:13.194Z,47.07
2018-09-20T01:19:40.873Z,47.41
2018-09-20T01:22:08.523Z,47.49
2018-09-20T01:24:36.182Z,46.95
2018-09-20T01:27:03.925Z,46.99
2018-09-20T01:29:31.587Z,46.99
2018-09-20T01:31:59.224Z,47.83
2018-09-20T01:34:26.917Z,48.16
2018-09-20T01:36:54.688Z,48.86
2018-09-20T01:39:22.383Z,49.41
2018-09-20T01:41:50.053Z,49.94
2018-09-20T01:44:17.690Z,50.59
2018-09-20T01:46:45.386Z,51.18
2018-09-20T01:49:13.176Z,51.11
2018-09-20T01:51:41.008Z,51.51
2018-09-20T01:54:08.664Z,52.14
2018-09-20T01:56:36.391Z,52.21
2018-09-20T01:59:04.158Z,52.50
2018-09-20T02:01:31.801Z,52.60
2018-09-20T02:03:59.489Z,52.39
2018-09-20T02:06:27.161Z,52.62
2018-09-20T02:08:54.808Z,52.79
2018-09-20T02:11:22.497Z,52.71
2018-09-20T02:13:50.287Z,53.55
2018-09-20T02:16:17.961Z,53.13
2018-09-20T02:18:45.713Z,53.06
2018-09-20T02:21:13.398Z,52.79
2018-09-20T02:23:41.055Z,53.27
2018-09-20T02:26:08.762Z,53.54
2018-09-20T02:28:36.444Z,52.85
2018-09-20T02:31:04.850Z,53.15
2018-09-20T02:33:32.541Z,53.14
2018-09-20T02:36:00.211Z,53.34
2018-09-20T02:38:27.845Z,53.41
2018-09-20T02:40:55.566Z,53.15
2018-09-20T02:43:23.280Z,52.72
2018-09-20T02:45:50.951Z,53.24
2018-09-20T02:48:18.582Z,53.54
2018-09-20T02:50:46.240Z,53.64
2018-09-20T02:53:13.955Z,53.82
2018-09-20T02:55:41.649Z,54.35
2018-09-20T02:58:09.317Z,53.98
2018-09-20T03:00:37.018Z,54.38
2018-09-20T03:03:04.657Z,54.34
2018-09-20T03:05:32.318Z,54.54
2018-09-20T03:07:59.990Z,54.33
2018-09-20T03:10:27.678Z,54.60
2018-09-20T03:12:55.348Z,54.21
2018-09-20T03:15:23.176Z,54.96
2018-09-20T03:17:50.978Z,55.41
2018-09-20T03:20:18.650Z,55.56
2018-09-20T03:22:46.311Z,55.66
2018-09-20T03:25:13.942Z,55.54
2018-09-20T03:27:41.596Z,55.93
2018-09-20T03:30:09.322Z,55.98
2018-09-20T03:32:37.001Z,56.16
2018-09-20T03:35:04.746Z,56.40
2018-09-20T03:37:32.446Z,56.13
2018-09-20T03:40:00.378Z,55.96
2018-09-20T03:42:28.069Z,56.39
2018-09-20T03:44:55.801Z,56.51
2018-09-20T03:47:23.464Z,56.83
2018-09-20T03:49:51.110Z,56.62
2018-09-20T03:52:18.888Z,57.29
2018-09-20T03:54:46.556Z,57.20
2018-09-20T03:57:14.202Z,57.69
2018-09-20T03:59:41.878Z,57.31
2018-09-20T04:02:09.574Z,57.41
2018-09-20T04:04:37.262Z,57.27
2018-09-20T04:07:05.041Z,57.32
2018-09-20T04:09:32.743Z,57.61
2018-09-20T04:12:00.337Z,57.14
2018-09-20T04:14:28.079Z,56.89
2018-09-20T04:16:55.754Z,57.07
2018-09-20T04:19:23.408Z,56.87
2018-09-20T04:21:51.220Z,57.13
2018-09-20T04:24:18.873Z,56.87
2018-09-20T04:26:46.555Z,57.04
2018-09-20T04:29:14.251Z,57.00
2018-09-20T04:31:42.118Z,57.11
2018-09-20T04:34:09.854Z,56.73
2018-09-20T04:36:37.567Z,56.88
2018-09-20T04:39:07.600Z,57.05
2018-09-20T04:41:35.308Z,56.86
2018-09-20T04:44:03.069Z,56.77
2018-09-20T04:46:30.789Z,56.65
2018-09-20T04:48:58.478Z,56.66
2018-09-20T04:51:26.198Z,56.79
2018-09-20T04:53:53.877Z,56.79
2018-09-20T04:56:21.583Z,56.55
2018-09-20T04:58:49.249Z,56.48
2018-09-20T05:01:16.963Z,56.55
2018-09-20T05:03:44.639Z,56.46
2018-09-20T05:06:12.316Z,56.31
2018-09-20T05:08:40.005Z,56.38
2018-09-20T05:11:08.052Z,56.35
2018-09-20T05:13:41.949Z,56.19
2018-09-20T05:16:09.934Z,55.73
2018-09-20T05:18:38.007Z,55.92
2018-09-20T05:21:06.156Z,55.58
2018-09-20T05:23:34.122Z,55.73
2018-09-20T05:26:01.967Z,55.98
2018-09-20T05:28:30.151Z,55.45
2018-09-20T05:30:58.017Z,56.02
2018-09-20T05:33:25.972Z,55.67
2018-09-20T05:35:54.000Z,55.80
2018-09-20T05:38:21.868Z,55.77
2018-09-20T05:40:49.785Z,55.31
2018-09-20T05:43:17.598Z,54.63
2018-09-20T05:45:45.453Z,54.86
2018-09-20T05:48:13.322Z,53.90
2018-09-20T05:50:41.340Z,53.94
2018-09-20T05:53:09.184Z,53.88
2018-09-20T05:55:37.056Z,53.72
2018-09-20T05:58:05.042Z,53.43
2018-09-20T06:00:32.994Z,53.38
2018-09-20T06:03:00.774Z,53.28
2018-09-20T06:05:28.809Z,53.20
2018-09-20T06:07:56.710Z,53.20
2018-09-20T06:10:24.581Z,52.57
2018-09-20T06:12:52.472Z,53.05
2018-09-20T06:15:20.315Z,52.87
2018-09-20T06:17:48.190Z,52.50
2018-09-20T06:20:16.090Z,51.37
2018-09-20T06:22:43.931Z,51.52
2018-09-20T06:25:12.032Z,49.62
2018-09-20T06:27:40.115Z,48.87
2018-09-20T06:30:08.165Z,48.62
2018-09-20T06:32:36.121Z,47.80
2018-09-20T06:35:04.160Z,47.52
2018-09-20T06:37:31.988Z,47.50
2018-09-20T06:39:59.967Z,46.72
2018-09-20T06:42:27.969Z,46.35
2018-09-20T06:44:56.070Z,45.59
2018-09-20T06:47:23.871Z,45.10
2018-09-20T06:49:51.733Z,44.54
2018-09-20T06:52:19.680Z,44.60
2018-09-20T06:54:47.503Z,43.81
2018-09-20T06:57:15.454Z,42.98
2018-09-20T06:59:43.847Z,42.74
2018-09-20T07:02:11.835Z,42.78
2018-09-20T07:04:39.706Z,41.57
2018-09-20T07:07:07.597Z,41.63
2018-09-20T07:09:35.440Z,40.56
2018-09-20T07:12:03.278Z,40.00
2018-09-20T07:14:31.094Z,40.06
2018-09-20T07:16:58.949Z,38.91
2018-09-20T07:19:26.990Z,38.97
2018-09-20T07:21:55.009Z,38.07
2018-09-20T07:24:22.954Z,36.68
2018-09-20T07:26:50.930Z,36.96
2018-09-20T07:29:18.853Z,36.04
2018-09-20T07:31:46.665Z,35.09
2018-09-20T07:34:14.641Z,34.97
2018-09-20T07:36:42.665Z,33.83
2018-09-20T07:39:10.921Z,33.57
2018-09-20T07:41:39.274Z,32.60
2018-09-20T07:44:07.630Z,31.99
2018-09-20T07:46:35.541Z,31.68
2018-09-20T07:49:03.621Z,30.56
2018-09-20T07:51:31.476Z,29.33
2018-09-20T07:53:59.557Z,28.39
2018-09-20T07:56:27.464Z,27.76
2018-09-20T07:58:55.294Z,27.60
2018-09-20T08:01:23.289Z,26.97
2018-09-20T08:03:51.263Z,28.04
2018-09-20T08:06:19.111Z,27.59
2018-09-20T08:08:47.294Z,26.64
2018-09-20T08:11:15.263Z,28.69
2018-09-20T08:13:43.133Z,29.96
2018-09-20T08:16:11.035Z,31.69
2018-09-20T08:18:39.155Z,33.11
2018-09-20T08:21:07.299Z,33.75
2018-09-20T08:23:35.220Z,34.29
2018-09-20T08:26:03.125Z,33.59
2018-09-20T08:28:30.971Z,33.33
2018-09-20T08:30:58.874Z,32.06
2018-09-20T08:33:26.739Z,30.07
2018-09-20T08:35:54.603Z,28.31
2018-09-20T08:38:22.489Z,26.22
2018-09-20T08:40:50.433Z,25.35
2018-09-20T08:43:18.382Z,24.90
2018-09-20T08:45:46.275Z,24.15
2018-09-20T08:48:14.250Z,23.52
2018-09-20T08:50:42.223Z,22.92
2018-09-20T08:53:10.135Z,22.84
2018-09-20T08:55:37.959Z,22.20
2018-09-20T08:58:05.952Z,23.13
2018-09-20T09:00:33.843Z,23.87
2018-09-20T09:03:01.798Z,24.48
2018-09-20T09:05:29.661Z,25.73
2018-09-20T09:07:57.804Z,26.34
2018-09-20T09:10:25.689Z,26.05
2018-09-20T09:12:53.694Z,26.22
2018-09-20T09:15:21.615Z,26.08
2018-09-20T09:17:49.733Z,25.56
2018-09-20T09:20:17.594Z,27.27
2018-09-20T09:22:45.735Z,27.86
2018-09-20T09:25:13.559Z,28.67
2018-09-20T09:27:41.433Z,29.41
2018-09-20T09:30:09.330Z,30.17
2018-09-20T09:32:37.461Z,30.86
2018-09-20T09:35:05.346Z,31.15
2018-09-20T09:37:33.350Z,31.13
2018-09-20T09:40:01.178Z,31.94
2018-09-20T09:42:29.051Z,30.86
2018-09-20T09:44:57.069Z,30.70
2018-09-20T09:47:25.072Z,29.94
2018-09-20T09:49:52.871Z,29.90
2018-09-20T09:52:21.050Z,29.88
2018-09-20T09:54:49.050Z,29.33
2018-09-20T09:57:17.041Z,28.14
2018-09-20T09:59:44.897Z,28.25
2018-09-20T10:02:12.942Z,27.21
2018-09-20T10:04:40.871Z,26.59
2018-09-20T10:07:08.803Z,26.01
2018-09-20T10:09:36.734Z,24.42
2018-09-20T10:12:04.632Z,24.80
2018-09-20T10:14:32.617Z,24.10
2018-09-20T10:17:00.363Z,23.51
2018-09-20T10:19:28.367Z,23.12
2018-09-20T10:21:56.334Z,22.59
2018-09-20T10:24:24.187Z,23.34
2018-09-20T10:26:52.099Z,23.19
2018-09-20T10:29:19.926Z,22.95
2018-09-20T10:31:47.818Z,23.09
2018-09-20T10:34:15.814Z,24.35
2018-09-20T10:36:43.641Z,24.30
2018-09-20T10:39:12.914Z,23.84
2018-09-20T10:41:41.625Z,23.63
2018-09-20T10:44:09.610Z,23.63
2018-09-20T10:46:37.466Z,23.79
2018-09-20T10:49:05.503Z,22.95
2018-09-20T10:51:33.660Z,24.14
2018-09-20T10:54:01.582Z,25.04
2018-09-20T10:56:29.487Z,25.32
2018-09-20T10:58:57.668Z,25.01
2018-09-20T11:01:25.627Z,24.30
2018-09-20T11:03:53.661Z,22.64
2018-09-20T11:06:21.688Z,22.04
2018-09-20T11:08:49.669Z,22.44
2018-09-20T11:11:17.561Z,21.84
2018-09-20T11:13:45.603Z,20.02
2018-09-20T11:16:13.582Z,19.36
2018-09-20T11:18:41.509Z,20.23
2018-09-20T11:21:09.531Z,20.54
2018-09-20T11:23:37.432Z,20.76
2018-09-20T11:26:05.226Z,20.50
2018-09-20T11:28:33.089Z,21.36
2018-09-20T11:31:01.108Z,19.78
2018-09-20T11:33:29.076Z,19.32
2018-09-20T11:35:56.936Z,18.91
2018-09-20T11:38:25.172Z,18.25
2018-09-20T11:40:53.185Z,17.31
2018-09-20T11:43:21.014Z,18.55
2018-09-20T11:45:48.961Z,18.85
2018-09-20T11:48:16.778Z,17.82
2018-09-20T11:50:44.904Z,18.80
2018-09-20T11:53:12.717Z,19.84
2018-09-20T11:55:40.718Z,20.71
2018-09-20T11:58:09.407Z,21.07
2018-09-20T12:00:37.244Z,22.20
2018-09-20T12:03:05.382Z,22.74
2018-09-20T12:05:33.351Z,22.46
2018-09-20T12:08:01.153Z,23.06
2018-09-20T12:10:29.174Z,23.27
2018-09-20T12:12:56.989Z,22.11
2018-09-20T12:15:24.766Z,21.78
2018-09-20T12:17:52.776Z,20.07
2018-09-20T12:20:20.711Z,19.09
2018-09-20T12:22:48.706Z,20.39
2018-09-20T12:25:16.597Z,22.82
2018-09-20T12:27:44.530Z,22.12
2018-09-20T12:30:12.418Z,21.20
2018-09-20T12:32:40.337Z,19.65
2018-09-20T12:35:08.456Z,17.69
2018-09-20T12:37:37.641Z,17.39
2018-09-20T12:40:06.612Z,18.17
2018-09-20T12:42:35.034Z,16.06
2018-09-20T12:45:03.024Z,16.12
2018-09-20T12:47:31.330Z,18.28
2018-09-20T12:49:59.290Z,20.31
2018-09-20T12:52:27.105Z,21.32
2018-09-20T12:54:55.380Z,21.63
2018-09-20T12:57:23.360Z,22.61
2018-09-20T12:59:51.027Z,22.13
2018-09-20T13:02:18.811Z,20.18
2018-09-20T13:04:46.718Z,19.79
2018-09-20T13:07:14.564Z,19.17
2018-09-20T13:09:42.444Z,18.82
2018-09-20T13:12:10.438Z,19.17
2018-09-20T13:14:38.273Z,19.18
2018-09-20T13:17:06.948Z,19.36
2018-09-20T13:19:34.930Z,19.43
2018-09-20T13:22:03.159Z,19.27
2018-09-20T13:24:31.019Z,17.92
2018-09-20T13:26:58.801Z,18.24
2018-09-20T13:29:26.646Z,19.10
2018-09-20T13:31:54.527Z,18.11
2018-09-20T13:34:22.463Z,19.10
2018-09-20T13:36:50.328Z,20.34
2018-09-20T13:39:18.347Z,20.03
2018-09-20T13:41:46.205Z,20.08
2018-09-20T13:44:14.287Z,18.37
2018-09-20T13:46:42.720Z,18.63
2018-09-20T13:49:10.514Z,17.96
2018-09-20T13:51:38.434Z,16.63
2018-09-20T13:54:06.434Z,16.43
2018-09-20T13:56:34.358Z,16.95
2018-09-20T13:59:02.130Z,17.96
2018-09-20T14:01:30.092Z,17.62
2018-09-20T14:03:57.948Z,18.33
2018-09-20T14:06:25.866Z,19.19
2018-09-20T14:08:53.939Z,21.88
2018-09-20T14:11:21.788Z,21.00
2018-09-20T14:13:49.678Z,20.86
2018-09-20T14:16:17.510Z,19.93
2018-09-20T14:18:45.583Z,19.85
2018-09-20T14:21:13.489Z,19.86
2018-09-20T14:23:41.504Z,20.10
2018-09-20T14:26:09.404Z,20.65
2018-09-20T14:28:37.329Z,20.71
2018-09-20T14:31:05.252Z,20.31
2018-09-20T14:33:33.109Z,20.42
2018-09-20T14:36:00.918Z,20.85
2018-09-20T14:38:28.780Z,20.29
2018-09-20T14:40:56.840Z,20.46
2018-09-20T14:43:24.853Z,19.55
2018-09-20T14:45:52.705Z,18.90
2018-09-20T14:48:20.661Z,19.18
2018-09-20T14:50:48.574Z,19.79
2018-09-20T14:53:16.416Z,19.79
2018-09-20T14:55:44.483Z,21.25
2018-09-20T14:58:12.486Z,20.00
2018-09-20T15:00:41.071Z,21.03
2018-09-20T15:03:08.725Z,21.84
2018-09-20T15:05:36.472Z,21.72
2018-09-20T15:08:04.192Z,21.68
2018-09-20T15:10:31.889Z,21.08
2018-09-20T15:12:59.668Z,21.56
2018-09-20T15:15:27.342Z,20.94
2018-09-20T15:17:55.033Z,19.25
2018-09-20T15:20:22.721Z,19.23
2018-09-20T15:22:50.371Z,18.68
2018-09-20T15:25:18.038Z,20.28
2018-09-20T15:27:45.732Z,20.20
2018-09-20T15:30:13.537Z,19.89
2018-09-20T15:32:41.300Z,21.15
2018-09-20T15:35:09.048Z,21.90
2018-09-20T15:37:36.704Z,21.61
2018-09-20T15:40:04.519Z,20.85
2018-09-20T15:42:32.304Z,20.68
2018-09-20T15:45:00.221Z,21.39
2018-09-20T15:47:28.113Z,20.69
2018-09-20T15:49:56.078Z,21.18
2018-09-20T15:52:24.070Z,21.13
2018-09-20T15:54:51.764Z,20.74
2018-09-20T15:57:19.631Z,22.26
2018-09-20T15:59:47.797Z,23.68
2018-09-20T16:02:15.611Z,24.66
2018-09-20T16:04:43.486Z,26.49
2018-09-20T16:07:11.521Z,27.24
2018-09-20T16:09:39.524Z,27.50
2018-09-20T16:12:07.281Z,28.20
2018-09-20T16:14:35.000Z,28.72
2018-09-20T16:17:02.701Z,29.55
2018-09-20T16:19:30.391Z,29.31
2018-09-20T16:21:58.102Z,29.47
2018-09-20T16:24:25.910Z,29.86
2018-09-20T16:26:53.601Z,30.60
2018-09-20T16:29:33.044Z,30.73
2018-09-20T16:32:20.170Z,30.40
2018-09-20T16:35:04.141Z,30.31
2018-09-20T16:37:49.343Z,30.40
2018-09-20T16:40:18.807Z,30.27
2018-09-20T16:42:49.746Z,30.77
2018-09-20T16:45:17.569Z,30.58
2018-09-20T16:47:45.222Z,30.98
2018-09-20T16:50:12.941Z,30.74
2018-09-20T16:52:40.805Z,30.93
2018-09-20T16:55:08.516Z,31.28
2018-09-20T16:57:36.240Z,31.38
2018-09-20T17:00:05.368Z,31.70
2018-09-20T17:02:33.014Z,31.15
2018-09-20T17:05:00.706Z,31.42
2018-09-20T17:07:28.371Z,31.28
2018-09-20T17:09:56.043Z,31.85
2018-09-20T17:12:23.727Z,31.52
2018-09-20T17:14:51.404Z,31.91
2018-09-20T17:17:19.073Z,32.29
2018-09-20T17:19:46.780Z,32.02
2018-09-20T17:22:14.483Z,32.58
2018-09-20T17:24:52.588Z,32.87
2018-09-20T17:27:20.548Z,32.51
2018-09-20T17:29:48.402Z,33.06
2018-09-20T17:32:16.132Z,32.88
2018-09-20T17:34:44.265Z,32.72
2018-09-20T17:37:13.527Z,32.50
2018-09-20T17:39:42.887Z,33.17
2018-09-20T17:42:12.222Z,32.72
2018-09-20T17:44:40.059Z,32.93
2018-09-20T17:47:07.766Z,33.33
2018-09-20T17:49:35.527Z,33.90
2018-09-20T17:52:03.474Z,33.58
2018-09-20T17:54:31.662Z,34.10
2018-09-20T17:56:59.856Z,34.20
2018-09-20T17:59:27.569Z,34.53
2018-09-20T18:01:55.246Z,34.43
2018-09-20T18:04:23.026Z,34.62
2018-09-20T18:06:50.857Z,34.99
2018-09-20T18:09:18.662Z,35.45
2018-09-20T18:11:46.384Z,35.22
2018-09-20T18:14:14.121Z,35.32
2018-09-20T18:16:41.912Z,35.67
2018-09-20T18:19:09.742Z,35.47
2018-09-20T18:21:37.509Z,36.06
2018-09-20T18:24:05.276Z,35.71
2018-09-20T18:26:32.970Z,36.23
2018-09-20T18:29:00.814Z,36.16
2018-09-20T18:31:28.516Z,36.39
2018-09-20T18:33:56.301Z,36.51
2018-09-20T18:36:24.050Z,36.62
2018-09-20T18:38:51.805Z,36.03
2018-09-20T18:41:19.701Z,36.36
2018-09-20T18:43:48.149Z,36.68
2018-09-20T18:46:15.996Z,37.01
2018-09-20T18:48:44.404Z,36.98
2018-09-20T18:51:12.810Z,37.01
2018-09-20T18:53:40.757Z,37.32
2018-09-20T18:56:09.203Z,37.48
2018-09-20T18:58:37.143Z,37.63
2018-09-20T19:01:05.287Z,37.54
2018-09-20T19:03:33.167Z,37.57
2018-09-20T19:06:01.081Z,37.79
2018-09-20T19:08:28.805Z,37.56
2018-09-20T19:10:56.668Z,37.99
2018-09-20T19:13:24.498Z,37.88
2018-09-20T19:15:52.358Z,37.63
2018-09-20T19:18:20.227Z,37.98
2018-09-20T19:20:48.089Z,38.22
2018-09-20T19:23:15.881Z,38.34
2018-09-20T19:25:43.633Z,38.20
2018-09-20T19:28:11.482Z,38.44
2018-09-20T19:31:17.026Z,38.11
2018-09-20T19:33:44.752Z,38.56
2018-09-20T19:36:12.489Z,38.33
2018-09-20T19:38:40.339Z,38.38
2018-09-20T19:41:08.159Z,38.84
2018-09-20T19:43:35.863Z,38.60
2018-09-20T19:46:03.610Z,38.72
2018-09-20T19:48:31.362Z,38.88
2018-09-20T19:50:59.227Z,39.21
2018-09-20T19:53:26.997Z,39.41
2018-09-20T19:55:54.731Z,39.37
2018-09-20T19:58:22.577Z,39.63
2018-09-20T20:00:50.498Z,39.55
2018-09-20T20:03:18.595Z,39.78
2018-09-20T20:05:46.570Z,39.74
2018-09-20T20:08:14.852Z,39.82
2018-09-20T20:10:42.744Z,40.19
2018-09-20T20:13:10.572Z,40.01
2018-09-20T20:15:38.441Z,40.14
2018-09-20T20:18:06.073Z,40.39
2018-09-20T20:20:33.862Z,40.54
2018-09-20T20:23:01.784Z,40.30
2018-09-20T20:25:29.640Z,40.31
2018-09-20T20:27:57.470Z,40.28
2018-09-20T20:30:25.508Z,40.24
2018-09-20T20:32:53.408Z,40.57
2018-09-20T20:35:21.217Z,40.82
2018-09-20T20:37:49.165Z,40.19
2018-09-20T20:40:16.939Z,40.33
2018-09-20T20:42:44.758Z,41.10
2018-09-20T20:45:12.972Z,41.28
2018-09-20T20:47:40.905Z,40.89
2018-09-20T20:50:08.622Z,41.12
2018-09-20T20:52:36.511Z,41.27
2018-09-20T20:55:04.443Z,41.34
2018-09-20T20:57:32.156Z,41.72
2018-09-20T20:59:59.859Z,41.67
2018-09-20T21:02:27.721Z,41.63
2018-09-20T21:04:55.483Z,41.54
2018-09-20T21:07:23.171Z,41.82
2018-09-20T21:09:50.892Z,42.18
2018-09-20T21:12:18.601Z,42.15
2018-09-20T21:14:46.276Z,42.21
2018-09-20T21:17:14.002Z,42.06
2018-09-20T21:19:41.678Z,42.33
2018-09-20T21:22:09.357Z,42.30
2018-09-20T21:24:37.134Z,42.33
2018-09-20T21:27:05.489Z,42.54
2018-09-20T21:29:33.226Z,42.64
2018-09-20T21:32:00.925Z,42.89
2018-09-20T21:34:28.617Z,42.94
2018-09-20T21:36:56.556Z,42.72
2018-09-20T21:39:24.356Z,42.64
2018-09-20T21:41:52.022Z,43.01
2018-09-20T21:44:19.729Z,42.77
2018-09-20T21:46:47.596Z,43.37
2018-09-20T21:49:15.268Z,43.54
2018-09-20T21:51:43.280Z,43.62
2018-09-20T21:54:10.978Z,43.54
2018-09-20T21:56:38.682Z,43.30
2018-09-20T21:59:06.947Z,43.64
2018-09-20T22:01:40.234Z,43.76
2018-09-20T22:04:08.520Z,43.55
2018-09-20T22:06:36.826Z,43.68
2018-09-20T22:09:08.159Z,43.63
2018-09-20T22:11:35.996Z,44.10
2018-09-20T22:14:03.734Z,43.86
2018-09-20T22:16:31.425Z,43.57
2018-09-20T22:18:59.114Z,43.75
2018-09-20T22:21:26.822Z,43.65
2018-09-20T22:23:54.585Z,43.79
2018-09-20T22:26:22.321Z,44.16
2018-09-20T22:28:50.002Z,44.07
2018-09-20T22:31:18.213Z,43.90
2018-09-20T22:33:46.738Z,43.88
2018-09-20T22:36:14.434Z,44.08
2018-09-20T22:38:42.155Z,44.07
2018-09-20T22:41:09.877Z,44.49
2018-09-20T22:43:37.609Z,44.17
2018-09-20T22:46:05.457Z,44.21
2018-09-20T22:48:33.136Z,43.95
2018-09-20T22:51:00.800Z,43.95
2018-09-20T22:53:28.550Z,44.18
2018-09-20T22:55:56.318Z,44.24
2018-09-20T22:58:24.005Z,44.00
2018-09-20T23:00:51.726Z,44.14
2018-09-20T23:03:20.276Z,43.74
2018-09-20T23:05:47.955Z,43.82
2018-09-20T23:08:15.773Z,43.58
2018-09-20T23:10:43.615Z,43.89
2018-09-20T23:13:11.425Z,43.79
2018-09-20T23:15:39.247Z,43.79
2018-09-20T23:18:07.015Z,43.69
2018-09-20T23:20:34.818Z,43.54
2018-09-20T23:23:02.664Z,43.95
2018-09-20T23:25:30.473Z,43.78
2018-09-20T23:27:58.277Z,43.57
2018-09-20T23:30:26.034Z,43.47
2018-09-20T23:32:53.826Z,43.06
2018-09-20T23:35:21.622Z,43.20
2018-09-20T23:37:49.436Z,43.43
2018-09-20T23:40:17.224Z,43.13
2018-09-20T23:42:45.298Z,43.17
2018-09-20T23:45:13.234Z,43.42
2018-09-20T23:47:41.279Z,43.40
2018-09-20T23:50:09.764Z,43.32
2018-09-20T23:52:37.657Z,43.27
2018-09-20T23:55:05.912Z,43.32
2018-09-20T23:57:33.601Z,43.46
